Terminal Aerodrome Forecast
Issued by NWS Cleveland, OH

Home | Current Version | Previous Version | Graphics & Text | Print | Product List | Glossary Off
Versions: 1 2 3 4 5 6 7 8 9 10 11 12 13 14 15 16 17 18 19 20

000
FTUS41 KCLE 262000 AAA
TAFERI
TAF AMD
KERI 262038Z 2621/2718 VRB04KT 4SM -SN BR OVC004
      TEMPO 2621/2623 2SM -SN BR OVC002
     FM262300 30006KT 5SM -SN BR OVC005
     FM270000 30008KT P6SM OVC015=

USA.gov is the U.S. government's official web portal to all federal, state and local government web resources and services.